Latest Coastal Weather Observations for Cape Borda

IDT60701

Issued at 11:21 am EDT Saturday 13 February 2016 (issued every 10 minutes, with the page automatically refreshed every 10 minutes)

About coastal observations | Map of coastal stations | Coastal observations for TAS | Marine services | Other Formats
Station Details ID: 022823 Name: CAPE BORDA Lat: -35.75 Lon: 136.60 Height: 158.0 m
Data from the previous 72 hours. | See also: Recent months at Cape Borda
Date/Time
EDT
Temp

°C
Wind Pressure Rain
since 9am
mm
Weather Cloud Vis
km
Sea
Height
m
Swell
Dir
 
Speed
knots
Gust
knots
hPa Trend Height
m
Period
s
Dir
13/11:00am 19.5 SW 11 14 1013.0 - 0.0 - - - - - - -
13/10:30am 19.0 WSW 8 12 1013.0 - 0.0 - - - - - - -
13/10:00am 18.8 WSW 9 13 1012.9 - 0.0 - - - - - - -
13/09:30am 18.5 WSW 8 11 1012.2 R 0.0 Shallow fog Cloudy 1 <0.5 4.0 9 SW
13/09:00am 18.2 WSW 8 12 1012.3 - 0.0 - - - - - - -
13/08:30am 18.1 WSW 7 9 1012.0 - 0.0 - - - - - - -
13/08:00am 17.9 WSW 7 8 1011.8 - 0.0 - - - - - - -
13/07:30am 17.8 WSW 7 10 1011.5 - 0.0 - - - - - - -
13/07:00am 17.8 WSW 6 8 1011.2 - 0.0 - - - - - - -
13/06:00am 17.7 WSW 7 9 1011.1 - 0.0 - - - - - - -
13/05:30am 17.6 WSW 8 11 1011.1 - 0.0 - - - - - - -
13/05:00am 17.0 W 6 8 1010.8 - 0.0 - - - - - - -
13/04:30am 16.7 WNW 6 7 1010.9 - 0.0 - - - - - - -
13/04:00am 16.7 NW 5 6 1011.0 - 0.0 - - - - - - -
13/03:30am 16.5 NW 5 10 1011.0 - 0.0 - - - - - - -
13/03:00am 16.3 NNW 5 6 1011.4 - 0.0 - - - - - - -
13/02:30am 16.5 WNW 5 6 1011.7 - 0.0 - - - - - - -
13/02:00am 16.5 W 6 8 1011.8 - 0.0 - - - - - - -
13/01:30am 16.4 WSW 7 10 1011.9 - 0.0 - - - - - - -
13/01:00am 16.2 SW 7 8 1011.9 - 0.0 - - - - - - -
13/12:30am 16.6 SW 7 9 1011.7 - 0.0 - - - - - - -
13/12:00am 16.9 SSW 9 11 1012.6 - 0.0 - - - - - - -
 
Date/Time
EDT
Temp

°C
Wind Pressure Rain
since 9am
mm
Weather Cloud Vis
km
Sea
Height
m
Swell
Dir
 
Speed
knots
Gust
knots
hPa Trend Height
m
Period
s
Dir
12/11:30pm 17.2 WSW 7 9 1012.4 - 0.0 - - - - - - -
12/11:00pm 17.2 WSW 7 9 1012.5 - 0.0 - - - - - - -
12/10:30pm 17.4 W 7 8 1012.5 - 0.0 - - - - - - -
12/10:00pm 17.6 W 6 7 1012.3 - 0.0 - - - - - - -
12/09:30pm 17.0 WSW 6 8 1012.0 - 0.0 - - - - - - -
12/09:00pm 18.1 WSW 5 6 1012.2 - 0.0 - - - - - - -
12/08:30pm 19.9 WSW 4 5 1012.2 - 0.0 - - - - - - -
12/08:00pm 20.7 W 5 7 1012.4 - 0.0 - - - - - - -
12/07:30pm 21.3 W 6 8 1012.5 - 0.0 - - - - - - -
12/07:00pm 22.5 WNW 6 8 1012.5 - 0.0 - - - - - - -
12/06:30pm 24.4 N 5 7 1011.7 - 0.0 - - - - - - -
12/06:00pm 23.7 WNW 6 8 1012.3 - 0.0 - - - - - - -
12/05:30pm 24.5 W 6 9 1012.6 - 0.0 - - - - - - -
12/05:00pm 23.6 WSW 6 9 1013.1 - 0.0 - - - - - - -
12/04:30pm 21.7 SSW 10 13 1013.6 - 0.0 - - - - - - -
12/04:00pm 21.3 SW 13 18 1014.2 - 0.0 - - - - - - -
12/03:30pm 21.9 WSW 13 18 1014.1 R 0.0 Fine Clear 15 1 - - SW
12/03:00pm 20.7 WSW 13 17 1014.7 - 0.0 - - - - - - -
12/02:30pm 21.3 WSW 13 18 1015.0 - 0.0 - - - - - - -
12/02:00pm 21.1 WNW 10 13 1014.8 - 0.0 - - - - - - -
12/01:30pm 20.8 N 7 10 1014.4 - 0.0 - - - - - - -
12/01:00pm 20.7 NNW 7 8 1014.8 - 0.0 - - - - - - -
12/12:30pm 20.5 WNW 6 9 1014.8 - 0.0 - - - - - - -
12/12:00pm 20.7 NW 6 9 1015.5 - 0.0 - - - - - - -
12/11:30am 20.8 N 6 8 1016.0 - 0.0 - - - - - - -
12/11:00am 20.2 N 6 8 1016.1 - 0.0 - - - - - - -
12/10:30am 20.1 ESE 4 7 1016.3 - 0.0 - - - - - - -
12/10:00am 18.9 ESE 8 10 1016.5 - 0.0 - - - - - - -
12/09:30am 17.5 SE 7 11 1016.5 F 0.0 Haze Partly cloudy 18 <0.5 - - SW
12/09:00am 16.1 ESE 10 15 1016.5 - 0.0 - - - - - - -
12/08:30am 15.2 SE 9 13 1016.6 - 0.0 - - - - - - -
12/08:00am 14.4 SE 9 11 1016.5 - 0.0 - - - - - - -
12/07:30am 13.9 SE 9 13 1016.2 - 0.0 - - - - - - -
12/07:00am 14.0 SE 10 14 1015.9 - 0.0 - - - - - - -
12/06:30am 14.1 ESE 11 14 1015.2 - 0.0 - - - - - - -
12/06:00am 14.1 SE 11 14 1015.5 - 0.0 - - - - - - -
12/05:30am 14.4 SE 11 14 1015.6 - 0.0 - - - - - - -
12/05:00am 14.4 SE 11 14 1015.7 - 0.0 - - - - - - -
12/04:30am 14.6 SE 12 15 1015.7 - 0.0 - - - - - - -
12/04:00am 14.7 SE 11 14 1016.0 - 0.0 - - - - - - -
12/03:30am 14.7 SE 11 14 1015.8 - 0.0 - - - - - - -
12/03:00am 14.7 SE 11 14 1016.5 - 0.0 - - - - - - -
12/02:30am 14.8 SE 11 14 1016.9 - 0.0 - - - - - - -
12/02:00am 15.0 SE 11 13 1017.2 - 0.0 - - - - - - -
12/01:30am 15.3 SSE 11 16 1017.2 - 0.0 - - - - - - -
12/01:00am 15.2 SE 11 14 1017.2 - 0.0 - - - - - - -
12/12:30am 15.2 SSE 12 15 1017.2 - 0.0 - - - - - - -
12/12:00am 15.4 SSE 13 17 1017.7 - 0.0 - - - - - - -
 
Date/Time
EDT
Temp

°C
Wind Pressure Rain
since 9am
mm
Weather Cloud Vis
km
Sea
Height
m
Swell
Dir
 
Speed
knots
Gust
knots
hPa Trend Height
m
Period
s
Dir
11/11:30pm 15.6 SSE 12 16 1017.9 - 0.0 - - - - - - -
11/11:00pm 15.9 SSE 13 19 1018.0 - 0.0 - - - - - - -
11/10:30pm 16.1 SSE 16 21 1017.6 - 0.0 - - - - - - -
11/10:00pm 16.4 SSE 14 20 1017.4 - 0.0 - - - - - - -
11/09:30pm 16.6 SSE 15 21 1016.7 - 0.0 - - - - - - -
11/09:00pm 17.2 SSE 15 23 1017.5 - 0.0 - - - - - - -
11/08:30pm 18.1 SSE 16 23 1017.2 - 0.0 - - - - - - -
11/08:00pm 19.4 SSE 15 24 1016.9 - 0.0 - - - - - - -
11/07:30pm 20.4 SSE 17 24 1016.6 - 0.0 - - - - - - -
11/07:00pm 21.4 SSE 16 22 1016.2 - 0.0 - - - - - - -
11/06:30pm 22.4 SSE 16 25 1015.8 - 0.0 - - - - - - -
11/06:00pm 23.0 SSE 16 21 1016.1 - 0.0 - - - - - - -
11/05:30pm 23.5 SSE 15 22 1016.0 - 0.0 - - - - - - -
11/05:00pm 24.2 SSE 13 18 1016.0 - 0.0 - - - - - - -
11/04:30pm 25.0 SSE 12 17 1016.2 - 0.0 - - - - - - -
11/04:00pm 25.4 SE 11 18 1016.1 - 0.0 - - - - - - -
11/03:30pm 24.8 SE 12 18 1016.0 - 0.0 - - - - - - -
11/03:00pm 24.8 SSE 7 14 1016.9 - 0.0 - - - - - - -
11/02:30pm 22.0 NNW 5 8 1017.0 - 0.0 - - - - - - -
11/02:00pm 21.3 N 5 9 1017.2 - 0.0 - - - - - - -
11/01:30pm 21.8 NNW 8 11 1017.6 - 0.0 - - - - - - -
11/01:00pm 21.2 NW 6 9 1017.4 - 0.0 - - - - - - -
11/12:30pm 22.9 SSE 8 15 1017.3 - 0.0 - - - - - - -
11/12:00pm 22.7 SE 10 15 1017.5 - 0.0 - - - - - - -
11/11:30am 22.5 SE 11 15 1017.5 - 0.0 - - - - - - -
11/11:00am 21.7 SE 11 17 1017.6 - 0.0 - - - - - - -
11/10:30am 20.6 SE 13 18 1017.5 - 0.0 - - - - - - -
11/10:00am 19.4 SE 15 21 1017.5 - 0.0 - - - - - - -
11/09:30am 18.6 SE 16 21 1017.3 - 0.0 - - - - - - -
11/09:00am 17.8 SE 15 21 1017.6 - 0.0 - - - - - - -
11/08:30am 16.6 SE 14 23 1017.7 - 0.0 - - - - - - -
11/08:00am 15.5 SE 14 18 1017.6 - 0.0 - - - - - - -
11/07:30am 14.9 SSE 13 19 1017.3 - 0.0 - - - - - - -
11/07:00am 14.7 SSE 13 19 1016.9 - 0.0 - - - - - - -
11/06:30am 14.9 SSE 13 17 1016.4 - 0.0 - - - - - - -
11/06:00am 14.7 SSE 11 16 1016.5 - 0.0 - - - - - - -
11/05:30am 14.7 SSE 9 14 1016.6 - 0.0 - - - - - - -
11/05:00am 14.7 SSE 9 15 1016.4 - 0.0 - - - - - - -
11/04:30am 14.5 SSE 9 13 1016.4 - 0.0 - - - - - - -
11/04:00am 14.8 SSE 9 13 1016.3 - 0.0 - - - - - - -
11/03:30am 15.2 SSE 10 15 1016.1 - 0.0 - - - - - - -
11/03:00am 15.1 SSE 8 13 1016.6 - 0.0 - - - - - - -
11/02:30am 15.1 SSE 9 14 1016.6 - 0.0 - - - - - - -
11/02:00am 15.2 SSE 10 14 1016.6 - 0.0 - - - - - - -
11/01:30am 15.4 SSE 10 16 1017.1 - 0.0 - - - - - - -
11/01:00am 15.7 SSE 11 16 1017.1 - 0.0 - - - - - - -
11/12:30am 15.7 SSE 12 18 1016.8 - 0.0 - - - - - - -
11/12:00am 15.6 SSE 11 16 1017.3 - 0.0 - - - - - - -
 
Date/Time
EDT
Temp

°C
Wind Pressure Rain
since 9am
mm
Weather Cloud Vis
km
Sea
Height
m
Swell
Dir
 
Speed
knots
Gust
knots
hPa Trend Height
m
Period
s
Dir
10/11:30pm 15.3 SSE 9 16 1017.3 - 0.0 - - - - - - -
10/11:00pm 15.4 SSE 11 17 1017.2 - 0.0 - - - - - - -
10/10:30pm 15.3 SSE 11 17 1016.8 - 0.0 - - - - - - -
10/10:00pm 15.4 SSE 11 15 1016.7 - 0.0 - - - - - - -
10/09:30pm 15.7 SSE 11 15 1016.2 - 0.0 - - - - - - -
10/09:00pm 16.4 SSE 13 19 1016.2 - 0.0 - - - - - - -
10/08:30pm 17.5 SSE 16 23 1015.9 - 0.0 - - - - - - -
10/08:00pm 18.6 SSE 16 21 1015.7 - 0.0 - - - - - - -
10/07:30pm 19.0 SSE 17 23 1015.7 - 0.0 - - - - - - -
10/07:00pm 20.4 SSE 17 22 1015.5 - 0.0 - - - - - - -
10/06:30pm 21.8 SSE 18 22 1014.9 - 0.0 - - - - - - -
10/06:00pm 22.5 SSE 16 22 1015.2 - 0.0 - - - - - - -
10/05:30pm 23.1 SSE 15 21 1015.1 - 0.0 - - - - - - -
10/05:00pm 24.7 SSE 12 19 1015.2 - 0.0 - - - - - - -
10/04:30pm 24.9 SSE 12 16 1015.2 - 0.0 - - - - - - -
10/04:00pm 24.8 SSE 13 18 1015.1 - 0.0 - - - - - - -
10/03:30pm 25.5 SSE 11 16 1015.0 - 0.0 - - - - - - -
10/03:00pm 25.5 SSE 9 15 1015.5 - 0.0 - - - - - - -
10/02:30pm 26.0 SSE 9 14 1015.7 - 0.0 - - - - - - -
10/02:00pm 24.9 SSE 11 15 1015.9 - 0.0 - - - - - - -
10/01:30pm 25.2 ESE 8 12 1016.0 - 0.0 - - - - - - -
10/01:00pm 24.7 SE 9 16 1016.3 - 0.0 - - - - - - -
10/12:30pm 23.8 SE 9 14 1016.2 - 0.0 - - - - - - -
10/12:00pm 23.7 ESE 10 12 1016.6 - 0.0 - - - - - - -

Other Formats:

Comma delimited format used in spreadsheet applications
http://www.bom.gov.au/fwo/IDT60701/IDT60701.95805.axf

JavaScript Object Notation format (JSON) in row-major order
http://www.bom.gov.au/fwo/IDT60701/IDT60701.95805.json